Meteorología y climatología de Navarra
Datos de la estación - Meteo Navarra

Estación de Gorramendi GN

Altitud 1071 m.


Datos desde el 10/10/2019 hasta el 11/10/2019 en horario solar
Los datos son PROVISIONALES

Anterior Página 1 de 1 Siguiente Descargar: Formato para Excel 2000 o superior   Formato csv   Formato para OpenOffice Calc
Fecha Temperatura Humedad relativa Radiación global Insolación Precipitación Vel. viento 10 m Vel. viento 10 m Dir. viento 10 m
ºC % W/m² s l/m² m/s km/h º
10/10/2019 0:00 8.0 99 0.0 0 0.0 5.1 18.4 314
10/10/2019 0:10 7.9 99 0.0 0 0.1 5.3 19.0 316
10/10/2019 0:20 7.9 99 0.0 0 0.0 5.8 21.0 317
10/10/2019 0:30 7.9 99 0.0 0 0.0 5.6 20.2 313
10/10/2019 0:40 7.9 99 0.0 0 0.0 5.6 20.3 318
10/10/2019 0:50 7.9 99 0.0 0 0.0 5.5 19.7 322
10/10/2019 1:00 8.0 99 0.0 0 0.0 5.6 20.0 318
10/10/2019 1:10 8.0 99 0.0 0 0.0 6.8 24.3 321
10/10/2019 1:20 7.9 99 0.0 0 0.0 7.4 26.7 321
10/10/2019 1:30 7.9 99 0.0 0 0.0 7.0 25.1 328
10/10/2019 1:40 7.8 99 0.0 0 0.0 6.4 23.2 328
10/10/2019 1:50 7.8 99 0.0 0 0.0 5.6 20.2 328
10/10/2019 2:00 7.7 99 0.0 0 0.0 4.9 17.6 326
10/10/2019 2:10 7.5 99 0.0 0 0.0 4.2 15.1 314
10/10/2019 2:20 7.3 99 0.0 0 0.0 4.0 14.3 312
10/10/2019 2:30 7.2 99 0.0 0 0.0 3.8 13.5 316
10/10/2019 2:40 7.2 99 0.0 0 0.0 4.1 14.8 322
10/10/2019 2:50 7.2 99 0.0 0 0.0 4.2 15.2 319
10/10/2019 3:00 7.1 99 0.0 0 0.0 4.8 17.2 330
10/10/2019 3:10 7.0 99 0.0 0 0.0 4.6 16.5 334
10/10/2019 3:20 7.1 99 0.0 0 0.0 4.6 16.6 338
10/10/2019 3:30 7.2 99 0.0 0 0.0 4.2 15.0 336
10/10/2019 3:40 7.2 99 0.0 0 0.0 3.8 13.8 328
10/10/2019 3:50 7.2 99 0.0 0 0.0 3.8 13.5 319
10/10/2019 4:00 7.2 99 0.0 0 0.0 3.7 13.2 330
10/10/2019 4:10 7.1 99 0.0 0 0.0 3.7 13.2 335
10/10/2019 4:20 7.2 99 0.0 0 0.0 3.3 12.0 334
10/10/2019 4:30 7.2 99 0.0 0 0.0 3.5 12.5 334
10/10/2019 4:40 7.1 99 0.0 0 0.0 4.6 16.4 339
10/10/2019 4:50 7.0 99 0.0 0 0.0 3.7 13.2 343
10/10/2019 5:00 7.1 99 0.0 0 0.0 3.1 11.2 342
10/10/2019 5:10 7.0 99 0.0 0 0.0 3.3 11.9 332
10/10/2019 5:20 6.9 99 0.0 0 0.0 3.1 11.3 334
10/10/2019 5:30 6.9 99 0.0 0 0.0 1.4 5.1 346
10/10/2019 5:40 6.8 99 0.0 0 0.0 0.9 3.3 5
10/10/2019 5:50 6.8 99 0.0 0 0.0 0.5 1.8 39
10/10/2019 6:00 6.8 99 0.0 0 0.0 1.4 5.0 36
10/10/2019 6:10 6.9 98 0.0 0 0.0 1.7 6.2 43
10/10/2019 6:20 7.0 98 3.6 0 0.0 2.1 7.6 58
10/10/2019 6:30 7.1 97 26.9 180 0.0 2.7 9.8 65
10/10/2019 6:40 7.4 95 49.5 600 0.0 3.1 11.1 61
10/10/2019 6:50 7.7 90 47.7 408 0.0 3.5 12.7 67
10/10/2019 7:00 8.3 80 49.4 32 0.0 4.3 15.4 60
10/10/2019 7:10 8.2 82 67.1 0 0.0 3.6 13.1 69
10/10/2019 7:20 8.2 82 93.6 176 0.0 4.2 15.1 92
10/10/2019 7:30 8.4 82 166.6 504 0.0 4.7 17.1 86
10/10/2019 7:40 8.8 83 275.5 600 0.0 4.2 15.0 93
10/10/2019 7:50 9.0 85 229.8 600 0.0 3.5 12.7 83
10/10/2019 8:00 8.9 88 222.2 600 0.0 3.7 13.2 85
10/10/2019 8:10 8.9 90 308.1 600 0.0 3.7 13.1 89
10/10/2019 8:20 9.0 88 342.5 600 0.0 3.4 12.2 89
10/10/2019 8:30 9.2 87 396.0 600 0.0 3.1 11.1 73
10/10/2019 8:40 9.3 86 425.2 600 0.0 2.9 10.4 70
10/10/2019 8:50 9.4 89 461.1 600 0.0 2.5 8.8 98
10/10/2019 9:00 9.9 86 466.7 596 0.0 2.8 10.1 96
10/10/2019 9:10 9.5 87 479.5 578 0.0 2.1 7.6 81
10/10/2019 9:20 9.7 91 266.0 316 0.0 2.0 7.0 154
10/10/2019 9:30 9.6 92 413.2 510 0.0 1.5 5.3 118
10/10/2019 9:40 9.6 91 239.4 182 0.0 1.6 5.9 86
10/10/2019 9:50 9.7 93 334.2 346 0.0 2.2 7.8 94
10/10/2019 10:00 9.6 88 355.9 260 0.0 2.4 8.6 93
10/10/2019 10:10 9.8 90 492.3 424 0.0 1.5 5.5 84
10/10/2019 10:20 10.1 89 482.8 418 0.0 3.1 11.2 152
10/10/2019 10:30 10.2 87 620.4 492 0.0 2.3 8.4 123
10/10/2019 10:40 10.6 86 625.5 492 0.0 2.9 10.3 134
10/10/2019 10:50 10.6 83 712.6 588 0.0 3.1 11.0 138
10/10/2019 11:00 10.7 82 701.8 544 0.0 2.9 10.5 149
10/10/2019 11:10 10.9 80 741.1 600 0.0 2.9 10.5 146
10/10/2019 11:20 10.9 78 728.7 600 0.0 2.4 8.5 144
10/10/2019 11:30 11.3 78 757.9 600 0.0 1.7 6.0 129
10/10/2019 11:40 11.6 77 783.7 600 0.0 2.1 7.5 143
10/10/2019 11:50 11.7 76 774.1 600 0.0 1.7 5.9 111
10/10/2019 12:00 11.7 80 793.4 600 0.0 0.8 3.0 79
10/10/2019 12:10 11.9 80 665.2 538 0.0 1.1 4.0 42
10/10/2019 12:20 11.7 81 690.5 550 0.0 1.5 5.2 38
10/10/2019 12:30 11.9 80 844.0 600 0.0 1.0 3.6 69
10/10/2019 12:40 12.5 77 754.8 600 0.0 1.8 6.5 142
10/10/2019 12:50 12.0 75 739.4 600 0.0 1.6 5.9 91
10/10/2019 13:00 12.1 77 727.6 600 0.0 2.1 7.4 113
10/10/2019 13:10 12.1 75 682.0 600 0.0 2.0 7.1 106
10/10/2019 13:20 12.2 74 684.8 600 0.0 1.4 5.2 105
10/10/2019 13:30 12.0 76 623.7 542 0.0 1.8 6.4 66
10/10/2019 13:40 12.2 78 668.3 600 0.0 1.7 6.1 42
10/10/2019 13:50 12.6 76 646.8 600 0.0 1.6 5.6 65
10/10/2019 14:00 12.3 74 603.9 600 0.0 1.5 5.3 85
10/10/2019 14:10 12.4 71 570.9 600 0.0 1.6 5.8 98
10/10/2019 14:20 12.1 73 548.8 600 0.0 2.0 7.3 86
10/10/2019 14:30 12.2 75 447.2 478 0.0 1.8 6.3 103
10/10/2019 14:40 12.0 74 473.5 578 0.0 2.5 9.0 115
10/10/2019 14:50 11.9 76 467.1 600 0.0 3.3 11.9 121
10/10/2019 15:00 11.8 78 423.6 598 0.0 3.2 11.6 100
10/10/2019 15:10 11.7 80 423.1 600 0.0 2.4 8.7 101
10/10/2019 15:20 11.7 81 380.9 600 0.0 2.8 10.0 98
10/10/2019 15:30 11.6 81 294.8 474 0.0 3.0 10.9 103
10/10/2019 15:40 11.3 82 285.8 522 0.0 3.7 13.4 99
10/10/2019 15:50 11.2 82 285.0 600 0.0 3.8 13.5 92
10/10/2019 16:00 11.2 83 251.9 600 0.0 4.0 14.5 97
10/10/2019 16:10 11.1 83 219.9 600 0.0 4.2 15.3 94
10/10/2019 16:20 10.9 83 188.2 600 0.0 4.8 17.4 108
10/10/2019 16:30 10.9 82 157.0 600 0.0 4.9 17.6 116
10/10/2019 16:40 10.8 83 125.9 600 0.0 5.5 19.8 119
10/10/2019 16:50 10.7 82 96.3 600 0.0 6.3 22.7 116
10/10/2019 17:00 10.6 82 68.7 600 0.0 6.6 23.6 122
10/10/2019 17:10 10.5 81 43.9 600 0.0 6.2 22.4 121
10/10/2019 17:20 10.5 81 23.9 98 0.0 6.0 21.6 124
10/10/2019 17:30 10.4 80 3.5 0 0.0 6.4 22.9 120
10/10/2019 17:40 10.4 79 0.0 0 0.0 6.2 22.2 121
10/10/2019 17:50 10.2 79 0.0 0 0.0 6.7 24.0 123
10/10/2019 18:00 10.2 79 0.0 0 0.0 6.9 24.9 123
10/10/2019 18:10 10.2 80 0.0 0 0.0 6.2 22.2 120
10/10/2019 18:20 10.3 80 0.0 0 0.0 6.2 22.3 123
10/10/2019 18:30 10.2 81 0.0 0 0.0 6.5 23.4 123
10/10/2019 18:40 10.2 82 0.0 0 0.0 6.6 23.6 124
10/10/2019 18:50 10.1 82 0.0 0 0.0 6.4 22.9 125
10/10/2019 19:00 10.1 81 0.0 0 0.0 6.3 22.8 128
10/10/2019 19:10 10.1 81 0.0 0 0.0 6.3 22.6 131
10/10/2019 19:20 10.2 80 0.0 0 0.0 6.5 23.2 130
10/10/2019 19:30 10.2 80 0.0 0 0.0 6.5 23.5 134
10/10/2019 19:40 10.3 80 0.0 0 0.0 6.0 21.5 130
10/10/2019 19:50 10.3 80 0.0 0 0.0 6.5 23.4 131
10/10/2019 20:00 10.4 80 0.0 0 0.0 6.2 22.3 135
10/10/2019 20:10 10.4 80 0.0 0 0.0 5.6 20.3 139
10/10/2019 20:20 10.4 80 0.0 0 0.0 5.5 19.9 139
10/10/2019 20:30 10.5 79 0.0 0 0.0 5.1 18.5 144
10/10/2019 20:40 10.9 77 0.0 0 0.0 6.2 22.1 153
10/10/2019 20:50 10.8 77 0.0 0 0.0 6.4 23.0 158
10/10/2019 21:00 11.6 73 0.0 0 0.0 7.4 26.6 166
10/10/2019 21:10 11.9 71 0.0 0 0.0 8.2 29.4 172
10/10/2019 21:20 11.7 72 0.0 0 0.0 8.4 30.2 172
10/10/2019 21:30 11.8 71 0.0 0 0.0 8.6 30.9 174
10/10/2019 21:40 12.2 68 0.0 0 0.0 9.2 33.2 179
10/10/2019 21:50 12.8 62 0.0 0 0.0 9.4 33.8 186
10/10/2019 22:00 12.9 60 0.0 0 0.0 10.1 36.3 190
10/10/2019 22:10 13.1 58 0.0 0 0.0 10.1 36.4 192
10/10/2019 22:20 13.2 57 0.0 0 0.0 12.1 43.4 193
10/10/2019 22:30 13.0 58 0.0 0 0.0 12.9 46.4 196
10/10/2019 22:40 13.1 56 0.0 0 0.0 13.4 48.3 197
10/10/2019 22:50 13.0 57 0.0 0 0.0 13.8 49.6 199
10/10/2019 23:00 12.8 56 0.0 0 0.0 13.4 48.1 198
10/10/2019 23:10 12.8 56 0.0 0 0.0 12.2 43.8 195
10/10/2019 23:20 13.0 55 0.0 0 0.0 13.3 47.9 196
10/10/2019 23:30 13.1 55 0.0 0 0.0 13.7 49.3 195
10/10/2019 23:40 13.0 55 0.0 0 0.0 13.1 47.0 196
10/10/2019 23:50 13.1 54 0.0 0 0.0 13.2 47.5 194
Anterior Página 1 de 1 Siguiente
Los datos de precipitación registrados en estaciones que están en cumbres son inferiores a lo real, como consecuencia del efecto del viento y de la nieve.


NOTA: Tipo de datos según el color:
   - Valores diarios o 10 minutos correctos
   - Valores diarios calculados a partir de un número de datos 10 minutos menor que 144 y mayor que 120, o de un número de datos semihorarios menor que 48 y mayor que 40 (caso de las estaciones de Riegos de Navarra y del MARM)
   - Valores diez minutos estimados


Contacto        Enlaces        Aviso legal